sensor_id;sensor_type;location;lat;lon;timestamp;P1;durP1;ratioP1;P2;durP2;ratioP2
67675;SDS011;54456;48.436;10.028;2023-11-19T09:40:38;9.75;;;5.00;;
67675;SDS011;54456;48.436;10.028;2023-11-19T09:42:09;9.48;;;4.63;;
67675;SDS011;54456;48.436;10.028;2023-11-19T09:43:40;10.15;;;5.28;;
67675;SDS011;54456;48.436;10.028;2023-11-19T09:45:12;9.35;;;4.55;;
67675;SDS011;54456;48.436;10.028;2023-11-19T10:16:12;10.88;;;4.85;;
67675;SDS011;54456;48.436;10.028;2023-11-19T10:35:56;6.90;;;3.10;;
67675;SDS011;54456;48.436;10.028;2023-11-19T10:37:30;6.68;;;3.10;;
67675;SDS011;54456;48.436;10.028;2023-11-19T10:39:07;7.07;;;3.15;;
67675;SDS011;54456;48.436;10.028;2023-11-19T10:40:39;6.45;;;2.88;;
67675;SDS011;54456;48.436;10.028;2023-11-19T10:45:54;6.22;;;2.70;;
67675;SDS011;54456;48.436;10.028;2023-11-19T10:47:39;6.07;;;2.60;;
67675;SDS011;54456;48.436;10.028;2023-11-19T10:49:10;5.22;;;2.10;;
67675;SDS011;54456;48.436;10.028;2023-11-19T10:50:41;7.28;;;2.63;;
67675;SDS011;54456;48.436;10.028;2023-11-19T10:54:56;5.85;;;2.55;;
67675;SDS011;54456;48.436;10.028;2023-11-19T10:56:30;5.95;;;2.50;;
67675;SDS011;54456;48.436;10.028;2023-11-19T11:05:12;6.30;;;2.60;;
67675;SDS011;54456;48.436;10.028;2023-11-19T11:06:44;5.80;;;2.53;;
67675;SDS011;54456;48.436;10.028;2023-11-19T11:12:05;5.45;;;2.13;;
67675;SDS011;54456;48.436;10.028;2023-11-19T11:13:36;5.30;;;2.10;;
67675;SDS011;54456;48.436;10.028;2023-11-19T11:15:07;4.85;;;2.00;;
67675;SDS011;54456;48.436;10.028;2023-11-19T11:16:39;3.85;;;1.63;;
67675;SDS011;54456;48.436;10.028;2023-11-19T11:19:43;3.95;;;1.60;;
67675;SDS011;54456;48.436;10.028;2023-11-19T11:21:15;4.30;;;1.67;;
67675;SDS011;54456;48.436;10.028;2023-11-19T11:22:55;4.28;;;1.85;;
67675;SDS011;54456;48.436;10.028;2023-11-19T11:25:05;4.60;;;1.83;;
67675;SDS011;54456;48.436;10.028;2023-11-19T11:28:18;3.57;;;1.73;;
67675;SDS011;54456;48.436;10.028;2023-11-19T11:35:27;3.67;;;1.45;;
67675;SDS011;54456;48.436;10.028;2023-11-19T11:39:09;3.35;;;1.60;;
67675;SDS011;54456;48.436;10.028;2023-11-19T11:40:40;5.00;;;1.90;;
67675;SDS011;54456;48.436;10.028;2023-11-19T11:43:53;3.45;;;1.63;;
67675;SDS011;54456;48.436;10.028;2023-11-19T11:45:39;4.45;;;1.60;;
67675;SDS011;54456;48.436;10.028;2023-11-19T11:47:12;4.20;;;1.65;;
67675;SDS011;54456;48.436;10.028;2023-11-19T11:48:44;3.80;;;1.60;;
67675;SDS011;54456;48.436;10.028;2023-11-19T11:50:17;4.60;;;1.75;;
67675;SDS011;54456;48.436;10.028;2023-11-19T11:51:57;2.97;;;1.48;;
67675;SDS011;54456;48.436;10.028;2023-11-19T11:53:28;5.90;;;1.90;;
67675;SDS011;54456;48.436;10.028;2023-11-19T11:55:06;4.00;;;1.70;;
67675;SDS011;54456;48.436;10.028;2023-11-19T11:56:39;4.13;;;1.60;;
67675;SDS011;54456;48.436;10.028;2023-11-19T11:58:09;4.13;;;1.70;;
67675;SDS011;54456;48.436;10.028;2023-11-19T12:01:10;4.33;;;1.60;;
67675;SDS011;54456;48.436;10.028;2023-11-19T12:02:50;3.78;;;1.70;;
67675;SDS011;54456;48.436;10.028;2023-11-19T12:04:21;4.53;;;1.77;;
67675;SDS011;54456;48.436;10.028;2023-11-19T12:05:51;4.23;;;1.90;;
67675;SDS011;54456;48.436;10.028;2023-11-19T12:07:23;4.22;;;1.85;;
67675;SDS011;54456;48.436;10.028;2023-11-19T12:09:00;4.03;;;1.80;;
67675;SDS011;54456;48.436;10.028;2023-11-19T12:10:31;4.05;;;1.67;;
67675;SDS011;54456;48.436;10.028;2023-11-19T12:13:52;3.67;;;1.70;;
67675;SDS011;54456;48.436;10.028;2023-11-19T12:15:29;4.93;;;1.80;;
67675;SDS011;54456;48.436;10.028;2023-11-19T12:17:03;4.67;;;1.77;;
67675;SDS011;54456;48.436;10.028;2023-11-19T12:18:33;4.93;;;1.70;;
67675;SDS011;54456;48.436;10.028;2023-11-19T12:20:07;4.68;;;1.58;;
67675;SDS011;54456;48.436;10.028;2023-11-19T12:21:38;4.75;;;1.63;;
67675;SDS011;54456;48.436;10.028;2023-11-19T12:23:09;4.65;;;1.70;;
67675;SDS011;54456;48.436;10.028;2023-11-19T12:24:39;4.65;;;1.70;;
67675;SDS011;54456;48.436;10.028;2023-11-19T12:26:20;3.90;;;1.65;;
67675;SDS011;54456;48.436;10.028;2023-11-19T12:27:52;4.15;;;1.45;;
67675;SDS011;54456;48.436;10.028;2023-11-19T12:29:23;4.15;;;1.63;;
67675;SDS011;54456;48.436;10.028;2023-11-19T12:30:53;4.40;;;1.63;;
67675;SDS011;54456;48.436;10.028;2023-11-19T12:32:23;3.70;;;1.60;;
67675;SDS011;54456;48.436;10.028;2023-11-19T12:33:54;3.90;;;1.60;;
67675;SDS011;54456;48.436;10.028;2023-11-19T12:35:25;2.50;;;1.17;;
67675;SDS011;54456;48.436;10.028;2023-11-19T12:36:56;4.28;;;1.30;;
67675;SDS011;54456;48.436;10.028;2023-11-19T12:38:26;5.82;;;2.08;;
